LPE2368 SABE-SPJC
Flight info
| Callsign | LPE2368 |
|---|---|
| Flight time | 4h 31m |
| Altitude | 34000 |
| Route | BIVAM4B BIVAM UW8 ERE UT680 EDVIK/N0458F360 UT680 TUC UL550 SCO |
| Aircraft | A320/M-SDE3FGHIRWY/LB1 |
Departure
| Time | 2026-05-05 17:07 |
|---|---|
| Airport | Aeroparque Jorge Newbery (SABE) |
Arrival
| Time | 2026-05-05 21:38 |
|---|---|
| Airport | Jorge Chávez International Airport (SPJC) |
| Time | Latitude | Longitude | Altitude | Speed | Heading |
|---|---|---|---|---|---|
| 2026-05-05 16:43 | -34.55658 | -58.41534 | 29 ft | 0 kts | 12° |
| 2026-05-05 16:55 | -34.55679 | -58.41539 | 25 ft | 1 kts | 359° |
| 2026-05-05 16:58 | -34.55696 | -58.41535 | 30 ft | 4 kts | 329° |
| 2026-05-05 16:58 | -34.55714 | -58.41518 | 27 ft | 4 kts | 309° |
| 2026-05-05 16:58 | -34.55728 | -58.41491 | 29 ft | 4 kts | 297° |
| 2026-05-05 16:58 | -34.55731 | -58.41485 | 30 ft | 0 kts | 297° |
| 2026-05-05 17:00 | -34.55728 | -58.41492 | 30 ft | 3 kts | 298° |
| 2026-05-05 17:01 | -34.55721 | -58.41534 | 25 ft | 7 kts | 256° |
| 2026-05-05 17:01 | -34.55765 | -58.41583 | 29 ft | 10 kts | 212° |
| 2026-05-05 17:01 | -34.55780 | -58.41650 | 25 ft | 10 kts | 294° |
| 2026-05-05 17:01 | -34.55748 | -58.41725 | 28 ft | 10 kts | 296° |
| 2026-05-05 17:02 | -34.55710 | -58.41801 | 27 ft | 11 kts | 303° |
| 2026-05-05 17:02 | -34.55671 | -58.41873 | 28 ft | 10 kts | 304° |
| 2026-05-05 17:02 | -34.55635 | -58.41939 | 26 ft | 9 kts | 303° |
| 2026-05-05 17:02 | -34.55605 | -58.41992 | 25 ft | 7 kts | 304° |
| 2026-05-05 17:03 | -34.55579 | -58.42039 | 29 ft | 6 kts | 305° |
| 2026-05-05 17:03 | -34.55552 | -58.42082 | 29 ft | 7 kts | 307° |
| 2026-05-05 17:03 | -34.55527 | -58.42122 | 26 ft | 5 kts | 307° |
| 2026-05-05 17:03 | -34.55510 | -58.42149 | 27 ft | 3 kts | 307° |
| 2026-05-05 17:04 | -34.55500 | -58.42165 | 29 ft | 2 kts | 307° |
| 2026-05-05 17:04 | -34.55494 | -58.42175 | 27 ft | 3 kts | 307° |
| 2026-05-05 17:04 | -34.55468 | -58.42217 | 27 ft | 9 kts | 307° |
| 2026-05-05 17:04 | -34.55415 | -58.42300 | 26 ft | 15 kts | 308° |
| 2026-05-05 17:05 | -34.55376 | -58.42369 | 26 ft | 7 kts | 292° |
| 2026-05-05 17:05 | -34.55364 | -58.42417 | 25 ft | 5 kts | 276° |
| 2026-05-05 17:05 | -34.55361 | -58.42453 | 25 ft | 5 kts | 275° |
| 2026-05-05 17:05 | -34.55405 | -58.42503 | 29 ft | 6 kts | 150° |
| 2026-05-05 17:06 | -34.55412 | -58.42494 | 30 ft | 0 kts | 128° |
| 2026-05-05 17:06 | -34.55545 | -58.42255 | 27 ft | 72 kts | 124° |
| 2026-05-05 17:06 | -34.55954 | -58.41526 | 27 ft | 134 kts | 123° |
| 2026-05-05 17:06 | -34.56556 | -58.40432 | 134 ft | 171 kts | 124° |
| 2026-05-05 17:07 | -34.57214 | -58.39243 | 937 ft | 167 kts | 122° |
| 2026-05-05 17:07 | -34.57745 | -58.37980 | 1565 ft | 172 kts | 108° |
| 2026-05-05 17:07 | -34.58001 | -58.36519 | 1904 ft | 184 kts | 92° |
| 2026-05-05 17:07 | -34.57919 | -58.34916 | 2222 ft | 198 kts | 75° |
| 2026-05-05 17:08 | -34.57427 | -58.33285 | 2448 ft | 217 kts | 58° |
| 2026-05-05 17:08 | -34.56462 | -58.31811 | 2713 ft | 232 kts | 36° |
| 2026-05-05 17:08 | -34.54968 | -58.30934 | 2971 ft | 249 kts | 6° |
| 2026-05-05 17:08 | -34.53248 | -58.31170 | 3516 ft | 254 kts | 333° |
| 2026-05-05 17:09 | -34.51817 | -58.32396 | 4344 ft | 252 kts | 318° |
| 2026-05-05 17:09 | -34.50432 | -58.33696 | 4817 ft | 251 kts | 321° |
| 2026-05-05 17:09 | -34.49015 | -58.34908 | 4960 ft | 248 kts | 322° |
| 2026-05-05 17:09 | -34.47585 | -58.36103 | 5465 ft | 250 kts | 322° |
| 2026-05-05 17:10 | -34.46155 | -58.37297 | 6362 ft | 249 kts | 322° |
| 2026-05-05 17:10 | -34.44732 | -58.38497 | 7111 ft | 250 kts | 322° |
| 2026-05-05 17:10 | -34.43299 | -58.39714 | 7801 ft | 254 kts | 321° |
| 2026-05-05 17:10 | -34.41842 | -58.40963 | 8451 ft | 259 kts | 321° |
| 2026-05-05 17:11 | -34.40360 | -58.42241 | 9112 ft | 264 kts | 321° |
| 2026-05-05 17:11 | -34.38853 | -58.43545 | 9759 ft | 269 kts | 320° |
| 2026-05-05 17:11 | -34.37314 | -58.44881 | 10207 ft | 280 kts | 320° |
| 2026-05-05 17:11 | -34.35672 | -58.46314 | 10336 ft | 302 kts | 320° |
| 2026-05-05 17:12 | -34.33911 | -58.47848 | 10567 ft | 319 kts | 321° |
| 2026-05-05 17:12 | -34.32085 | -58.49431 | 11027 ft | 326 kts | 321° |
| 2026-05-05 17:12 | -34.30225 | -58.51032 | 11598 ft | 330 kts | 321° |
| 2026-05-05 17:12 | -34.28349 | -58.52644 | 12263 ft | 332 kts | 321° |
| 2026-05-05 17:13 | -34.26488 | -58.54245 | 12904 ft | 334 kts | 321° |
| 2026-05-05 17:13 | -34.24565 | -58.55898 | 13496 ft | 336 kts | 321° |
| 2026-05-05 17:13 | -34.22656 | -58.57544 | 14073 ft | 338 kts | 321° |
| 2026-05-05 17:13 | -34.20761 | -58.59182 | 14612 ft | 340 kts | 321° |
| 2026-05-05 17:14 | -34.18830 | -58.60849 | 15172 ft | 343 kts | 321° |
| 2026-05-05 17:14 | -34.16859 | -58.62548 | 15740 ft | 345 kts | 321° |
| 2026-05-05 17:14 | -34.14924 | -58.64212 | 16305 ft | 347 kts | 321° |
| 2026-05-05 17:14 | -34.12947 | -58.65899 | 16873 ft | 349 kts | 321° |
| 2026-05-05 17:15 | -34.10949 | -58.67590 | 17373 ft | 352 kts | 321° |
| 2026-05-05 17:15 | -34.08935 | -58.69291 | 17882 ft | 355 kts | 321° |
| 2026-05-05 17:15 | -34.06903 | -58.71008 | 18380 ft | 358 kts | 321° |
| 2026-05-05 17:15 | -34.04859 | -58.72738 | 18835 ft | 360 kts | 321° |
| 2026-05-05 17:16 | -34.02806 | -58.74475 | 19287 ft | 362 kts | 321° |
| 2026-05-05 17:16 | -34.00737 | -58.76224 | 19740 ft | 364 kts | 321° |
| 2026-05-05 17:16 | -33.98660 | -58.77978 | 20179 ft | 366 kts | 321° |
| 2026-05-05 17:16 | -33.96570 | -58.79742 | 20606 ft | 368 kts | 321° |
| 2026-05-05 17:17 | -33.94475 | -58.81514 | 21063 ft | 370 kts | 321° |
| 2026-05-05 17:17 | -33.92364 | -58.83299 | 21452 ft | 372 kts | 321° |
| 2026-05-05 17:17 | -33.90239 | -58.85094 | 21874 ft | 374 kts | 321° |
| 2026-05-05 17:17 | -33.88104 | -58.86897 | 22293 ft | 376 kts | 321° |
| 2026-05-05 17:18 | -33.85957 | -58.88710 | 22707 ft | 378 kts | 321° |
| 2026-05-05 17:18 | -33.84528 | -58.89914 | 22978 ft | 379 kts | 321° |
| 2026-05-05 17:18 | -33.81631 | -58.92359 | 23519 ft | 382 kts | 321° |
| 2026-05-05 17:18 | -33.80188 | -58.93575 | 23751 ft | 383 kts | 321° |
| 2026-05-05 17:19 | -33.77999 | -58.95416 | 24094 ft | 385 kts | 321° |
| 2026-05-05 17:19 | -33.75802 | -58.97264 | 24411 ft | 386 kts | 320° |
| 2026-05-05 17:19 | -33.73593 | -58.99122 | 24721 ft | 388 kts | 320° |
| 2026-05-05 17:19 | -33.71381 | -59.00982 | 25039 ft | 390 kts | 320° |
| 2026-05-05 17:20 | -33.69152 | -59.02857 | 25358 ft | 391 kts | 320° |
| 2026-05-05 17:20 | -33.66918 | -59.04733 | 25677 ft | 393 kts | 320° |
| 2026-05-05 17:20 | -33.64674 | -59.06614 | 25991 ft | 394 kts | 320° |
| 2026-05-05 17:20 | -33.62422 | -59.08496 | 26312 ft | 395 kts | 320° |
| 2026-05-05 17:21 | -33.60163 | -59.10380 | 26624 ft | 397 kts | 320° |
| 2026-05-05 17:21 | -33.57892 | -59.12277 | 26954 ft | 398 kts | 320° |
| 2026-05-05 17:21 | -33.55620 | -59.14179 | 27230 ft | 400 kts | 320° |
| 2026-05-05 17:22 | -33.51047 | -59.18005 | 27814 ft | 403 kts | 320° |
| 2026-05-05 17:22 | -33.48744 | -59.19931 | 28111 ft | 404 kts | 320° |
| 2026-05-05 17:22 | -33.46433 | -59.21859 | 28395 ft | 405 kts | 319° |
| 2026-05-05 17:22 | -33.44119 | -59.23789 | 28679 ft | 407 kts | 319° |
| 2026-05-05 17:23 | -33.41788 | -59.25729 | 28925 ft | 408 kts | 319° |
| 2026-05-05 17:23 | -33.39481 | -59.27647 | 29187 ft | 410 kts | 319° |
| 2026-05-05 17:23 | -33.37137 | -59.29594 | 29410 ft | 411 kts | 320° |
| 2026-05-05 17:23 | -33.34786 | -59.31547 | 29660 ft | 413 kts | 319° |
| 2026-05-05 17:24 | -33.32426 | -59.33510 | 29951 ft | 414 kts | 319° |
| 2026-05-05 17:24 | -33.30059 | -59.35477 | 30185 ft | 415 kts | 319° |
| 2026-05-05 17:24 | -33.27688 | -59.37440 | 30481 ft | 413 kts | 319° |
| 2026-05-05 17:24 | -33.25328 | -59.39393 | 30781 ft | 412 kts | 319° |
| 2026-05-05 17:25 | -33.22978 | -59.41337 | 31089 ft | 410 kts | 319° |
| 2026-05-05 17:25 | -33.21396 | -59.42647 | 31301 ft | 409 kts | 319° |
| 2026-05-05 17:25 | -33.18300 | -59.45211 | 31679 ft | 408 kts | 319° |
| 2026-05-05 17:25 | -33.15975 | -59.47136 | 32008 ft | 406 kts | 319° |
| 2026-05-05 17:26 | -33.13656 | -59.49054 | 32305 ft | 405 kts | 319° |
| 2026-05-05 17:26 | -33.11344 | -59.50961 | 32608 ft | 404 kts | 319° |
| 2026-05-05 17:26 | -33.09036 | -59.52861 | 32899 ft | 402 kts | 319° |
| 2026-05-05 17:26 | -33.06740 | -59.54755 | 33192 ft | 401 kts | 319° |
| 2026-05-05 17:27 | -33.04449 | -59.56643 | 33489 ft | 400 kts | 318° |
| 2026-05-05 17:27 | -33.02165 | -59.58525 | 33795 ft | 398 kts | 318° |
| 2026-05-05 17:27 | -32.99886 | -59.60403 | 33929 ft | 398 kts | 318° |
| 2026-05-05 17:28 | -32.95336 | -59.64147 | 33950 ft | 397 kts | 318° |
| 2026-05-05 17:28 | -32.90786 | -59.67890 | 33951 ft | 397 kts | 318° |
| 2026-05-05 17:29 | -32.86235 | -59.71620 | 33948 ft | 397 kts | 318° |
| 2026-05-05 17:29 | -32.81681 | -59.75345 | 33907 ft | 398 kts | 319° |
| 2026-05-05 17:30 | -32.77139 | -59.79063 | 33943 ft | 399 kts | 319° |
| 2026-05-05 17:30 | -32.72559 | -59.82806 | 33950 ft | 400 kts | 319° |
| 2026-05-05 17:31 | -32.67980 | -59.86545 | 33942 ft | 400 kts | 319° |
| 2026-05-05 17:31 | -32.63394 | -59.90287 | 33937 ft | 399 kts | 318° |
| 2026-05-05 17:32 | -32.58816 | -59.93989 | 33940 ft | 399 kts | 320° |
| 2026-05-05 17:32 | -32.54064 | -59.97446 | 33940 ft | 402 kts | 322° |
| 2026-05-05 17:33 | -32.49218 | -60.00756 | 33942 ft | 402 kts | 322° |
| 2026-05-05 17:33 | -32.44384 | -60.04090 | 33940 ft | 402 kts | 322° |
| 2026-05-05 17:34 | -32.39579 | -60.07462 | 33937 ft | 402 kts | 321° |
| 2026-05-05 17:34 | -32.34777 | -60.10852 | 33934 ft | 402 kts | 321° |
| 2026-05-05 17:35 | -32.29972 | -60.14233 | 33935 ft | 402 kts | 321° |
| 2026-05-05 17:35 | -32.25193 | -60.17576 | 33942 ft | 402 kts | 322° |
| 2026-05-05 17:36 | -32.20377 | -60.20944 | 33931 ft | 403 kts | 321° |
| 2026-05-05 17:36 | -32.15550 | -60.24314 | 33930 ft | 403 kts | 321° |
| 2026-05-05 17:37 | -32.10719 | -60.27684 | 33934 ft | 403 kts | 321° |
| 2026-05-05 17:37 | -32.05884 | -60.31051 | 33929 ft | 403 kts | 321° |
| 2026-05-05 17:38 | -32.01060 | -60.34417 | 33930 ft | 403 kts | 321° |
| 2026-05-05 17:38 | -31.96240 | -60.37777 | 33940 ft | 402 kts | 321° |
| 2026-05-05 17:39 | -31.91422 | -60.41135 | 33944 ft | 402 kts | 321° |
| 2026-05-05 17:39 | -31.86594 | -60.44484 | 33947 ft | 403 kts | 321° |
| 2026-05-05 17:40 | -31.81767 | -60.47818 | 33929 ft | 402 kts | 321° |
| 2026-05-05 17:40 | -31.77016 | -60.51239 | 33948 ft | 398 kts | 319° |
| 2026-05-05 17:41 | -31.72400 | -60.54819 | 33947 ft | 397 kts | 318° |
| 2026-05-05 17:41 | -31.67792 | -60.58410 | 33940 ft | 398 kts | 318° |
| 2026-05-05 17:42 | -31.63151 | -60.61960 | 33914 ft | 398 kts | 319° |
| 2026-05-05 17:42 | -31.58494 | -60.65486 | 33909 ft | 399 kts | 319° |
| 2026-05-05 17:43 | -31.53837 | -60.69021 | 33906 ft | 399 kts | 319° |
| 2026-05-05 17:43 | -31.49211 | -60.72526 | 33906 ft | 398 kts | 319° |
| 2026-05-05 17:44 | -31.44556 | -60.76050 | 33912 ft | 399 kts | 319° |
| 2026-05-05 17:44 | -31.39904 | -60.79573 | 33901 ft | 398 kts | 318° |
| 2026-05-05 17:45 | -31.35253 | -60.83088 | 33907 ft | 398 kts | 318° |
| 2026-05-05 17:45 | -31.30597 | -60.86591 | 33904 ft | 398 kts | 318° |
| 2026-05-05 17:46 | -31.25942 | -60.90099 | 33901 ft | 398 kts | 318° |
| 2026-05-05 17:46 | -31.21280 | -60.93608 | 33872 ft | 398 kts | 318° |
| 2026-05-05 17:47 | -31.16625 | -60.97117 | 33904 ft | 399 kts | 318° |
| 2026-05-05 17:47 | -31.11961 | -61.00626 | 33896 ft | 399 kts | 318° |
| 2026-05-05 17:48 | -31.07293 | -61.04123 | 33893 ft | 399 kts | 318° |
| 2026-05-05 17:48 | -31.02631 | -61.07606 | 33894 ft | 398 kts | 318° |
| 2026-05-05 17:49 | -30.97962 | -61.11089 | 33902 ft | 398 kts | 318° |
| 2026-05-05 17:49 | -30.93288 | -61.14575 | 33896 ft | 398 kts | 318° |
| 2026-05-05 17:50 | -30.88654 | -61.18027 | 33887 ft | 398 kts | 318° |
| 2026-05-05 17:50 | -30.83982 | -61.21501 | 33893 ft | 399 kts | 318° |
| 2026-05-05 17:51 | -30.79312 | -61.24986 | 33868 ft | 399 kts | 318° |
| 2026-05-05 17:51 | -30.74633 | -61.28466 | 33888 ft | 400 kts | 318° |
| 2026-05-05 17:52 | -30.69943 | -61.31938 | 33885 ft | 400 kts | 318° |
| 2026-05-05 17:52 | -30.65247 | -61.35410 | 33889 ft | 399 kts | 318° |
| 2026-05-05 17:53 | -30.60566 | -61.38872 | 33888 ft | 399 kts | 318° |
| 2026-05-05 17:53 | -30.55895 | -61.42328 | 33883 ft | 399 kts | 318° |
| 2026-05-05 17:54 | -30.51215 | -61.45781 | 33883 ft | 399 kts | 318° |
| 2026-05-05 17:54 | -30.46532 | -61.49232 | 33886 ft | 399 kts | 318° |
| 2026-05-05 17:55 | -30.41846 | -61.52675 | 33881 ft | 399 kts | 318° |
| 2026-05-05 17:55 | -30.37161 | -61.56119 | 33858 ft | 399 kts | 318° |
| 2026-05-05 17:56 | -30.32475 | -61.59567 | 33880 ft | 399 kts | 318° |
| 2026-05-05 17:56 | -30.27817 | -61.62990 | 33876 ft | 399 kts | 318° |
| 2026-05-05 17:57 | -30.23125 | -61.66436 | 33877 ft | 399 kts | 318° |
| 2026-05-05 17:57 | -30.18429 | -61.69871 | 33873 ft | 400 kts | 318° |
| 2026-05-05 17:58 | -30.13726 | -61.73304 | 33874 ft | 401 kts | 318° |
| 2026-05-05 17:58 | -30.09009 | -61.76742 | 33870 ft | 401 kts | 318° |
| 2026-05-05 17:59 | -30.04295 | -61.80183 | 33876 ft | 401 kts | 318° |
| 2026-05-05 17:59 | -29.99577 | -61.83621 | 33871 ft | 401 kts | 318° |
| 2026-05-05 18:00 | -29.94860 | -61.87049 | 33841 ft | 401 kts | 318° |
| 2026-05-05 18:00 | -29.90134 | -61.90488 | 33872 ft | 403 kts | 318° |
| 2026-05-05 18:01 | -29.85718 | -61.94287 | 33865 ft | 389 kts | 308° |
| 2026-05-05 18:01 | -29.81801 | -61.98585 | 33860 ft | 389 kts | 308° |
| 2026-05-05 18:02 | -29.77881 | -62.02881 | 33864 ft | 389 kts | 308° |
| 2026-05-05 18:02 | -29.73982 | -62.07139 | 33833 ft | 389 kts | 308° |
| 2026-05-05 18:03 | -29.70050 | -62.11425 | 33863 ft | 390 kts | 308° |
| 2026-05-05 18:03 | -29.66108 | -62.15719 | 33862 ft | 390 kts | 308° |
| 2026-05-05 18:04 | -29.62164 | -62.20013 | 33863 ft | 390 kts | 308° |
| 2026-05-05 18:04 | -29.58224 | -62.24300 | 33863 ft | 390 kts | 308° |
| 2026-05-05 18:05 | -29.54285 | -62.28574 | 33860 ft | 389 kts | 308° |
| 2026-05-05 18:05 | -29.50342 | -62.32849 | 33857 ft | 390 kts | 308° |
| 2026-05-05 18:06 | -29.46398 | -62.37128 | 33857 ft | 390 kts | 308° |
| 2026-05-05 18:06 | -29.42452 | -62.41405 | 33854 ft | 390 kts | 308° |
| 2026-05-05 18:07 | -29.38502 | -62.45676 | 33854 ft | 390 kts | 308° |
| 2026-05-05 18:07 | -29.34543 | -62.49945 | 33852 ft | 391 kts | 308° |
| 2026-05-05 18:08 | -29.30588 | -62.54223 | 33851 ft | 391 kts | 308° |
| 2026-05-05 18:08 | -29.26631 | -62.58494 | 33846 ft | 391 kts | 308° |
| 2026-05-05 18:09 | -29.22665 | -62.62758 | 33846 ft | 391 kts | 308° |
| 2026-05-05 18:09 | -29.18704 | -62.67025 | 33843 ft | 391 kts | 308° |
| 2026-05-05 18:10 | -29.15407 | -62.70565 | 33843 ft | 391 kts | 309° |
| 2026-05-05 18:10 | -29.11432 | -62.74814 | 33829 ft | 392 kts | 309° |
| 2026-05-05 18:11 | -29.07451 | -62.79094 | 33841 ft | 393 kts | 308° |
| 2026-05-05 18:11 | -29.03455 | -62.83379 | 33844 ft | 393 kts | 309° |
| 2026-05-05 18:12 | -28.99467 | -62.87637 | 33841 ft | 392 kts | 309° |
| 2026-05-05 18:12 | -28.95478 | -62.91894 | 33838 ft | 392 kts | 309° |
| 2026-05-05 18:13 | -28.91503 | -62.96144 | 33832 ft | 392 kts | 309° |
| 2026-05-05 18:13 | -28.87514 | -63.00403 | 33833 ft | 394 kts | 309° |
| 2026-05-05 18:14 | -28.83504 | -63.04669 | 33835 ft | 394 kts | 309° |
| 2026-05-05 18:14 | -28.79494 | -63.08928 | 33835 ft | 394 kts | 309° |
| 2026-05-05 18:15 | -28.75486 | -63.13192 | 33833 ft | 394 kts | 309° |
| 2026-05-05 18:15 | -28.71507 | -63.17412 | 33832 ft | 393 kts | 309° |
| 2026-05-05 18:16 | -28.67506 | -63.21657 | 33831 ft | 394 kts | 309° |
| 2026-05-05 18:16 | -28.63495 | -63.25909 | 33829 ft | 395 kts | 309° |
| 2026-05-05 18:17 | -28.59464 | -63.30163 | 33832 ft | 395 kts | 309° |
| 2026-05-05 18:17 | -28.55439 | -63.34408 | 33829 ft | 395 kts | 309° |
| 2026-05-05 18:18 | -28.51415 | -63.38662 | 33834 ft | 395 kts | 309° |
| 2026-05-05 18:18 | -28.47397 | -63.42913 | 33873 ft | 396 kts | 309° |
| 2026-05-05 18:18 | -28.45380 | -63.45037 | 34138 ft | 394 kts | 309° |
| 2026-05-05 18:19 | -28.43371 | -63.47143 | 34436 ft | 392 kts | 309° |
| 2026-05-05 18:19 | -28.41373 | -63.49237 | 34718 ft | 390 kts | 309° |
| 2026-05-05 18:19 | -28.39386 | -63.51323 | 34981 ft | 388 kts | 309° |
| 2026-05-05 18:19 | -28.37411 | -63.53398 | 35234 ft | 386 kts | 309° |
| 2026-05-05 18:20 | -28.35442 | -63.55467 | 35477 ft | 385 kts | 309° |
| 2026-05-05 18:20 | -28.33481 | -63.57525 | 35710 ft | 383 kts | 309° |
| 2026-05-05 18:20 | -28.31524 | -63.59578 | 35812 ft | 382 kts | 309° |
| 2026-05-05 18:21 | -28.27639 | -63.63656 | 35828 ft | 379 kts | 308° |
| 2026-05-05 18:21 | -28.23759 | -63.67725 | 35829 ft | 380 kts | 309° |
| 2026-05-05 18:22 | -28.19872 | -63.71801 | 35830 ft | 381 kts | 309° |
| 2026-05-05 18:22 | -28.15979 | -63.75867 | 35827 ft | 380 kts | 309° |
| 2026-05-05 18:23 | -28.12115 | -63.79898 | 35828 ft | 380 kts | 309° |
| 2026-05-05 18:23 | -28.08228 | -63.83949 | 35832 ft | 380 kts | 309° |
| 2026-05-05 18:24 | -28.04341 | -63.88005 | 35807 ft | 380 kts | 309° |
| 2026-05-05 18:24 | -28.00462 | -63.92069 | 35808 ft | 380 kts | 309° |
| 2026-05-05 18:25 | -27.96576 | -63.96139 | 35815 ft | 381 kts | 309° |
| 2026-05-05 18:25 | -27.92687 | -64.00210 | 35831 ft | 381 kts | 309° |
| 2026-05-05 18:26 | -27.88794 | -64.04273 | 35839 ft | 381 kts | 309° |
| 2026-05-05 18:26 | -27.84893 | -64.08337 | 35866 ft | 381 kts | 309° |
| 2026-05-05 18:27 | -27.80997 | -64.12392 | 35834 ft | 381 kts | 309° |
| 2026-05-05 18:27 | -27.77100 | -64.16434 | 35847 ft | 381 kts | 309° |
| 2026-05-05 18:28 | -27.71250 | -64.22519 | 35860 ft | 381 kts | 309° |
| 2026-05-05 18:28 | -27.67350 | -64.26581 | 35853 ft | 382 kts | 309° |
| 2026-05-05 18:29 | -27.63432 | -64.30634 | 35859 ft | 382 kts | 309° |
| 2026-05-05 18:29 | -27.59508 | -64.34684 | 35830 ft | 382 kts | 309° |
| 2026-05-05 18:30 | -27.55614 | -64.38717 | 35839 ft | 383 kts | 309° |
| 2026-05-05 18:30 | -27.51697 | -64.42772 | 35847 ft | 382 kts | 309° |
| 2026-05-05 18:31 | -27.47774 | -64.46821 | 35843 ft | 382 kts | 309° |
| 2026-05-05 18:31 | -27.43856 | -64.50860 | 35839 ft | 382 kts | 309° |
| 2026-05-05 18:32 | -27.39936 | -64.54901 | 35838 ft | 382 kts | 309° |
| 2026-05-05 18:32 | -27.36014 | -64.58936 | 35817 ft | 382 kts | 310° |
| 2026-05-05 18:33 | -27.32084 | -64.62968 | 35821 ft | 383 kts | 310° |
| 2026-05-05 18:33 | -27.28116 | -64.66983 | 35828 ft | 384 kts | 310° |
| 2026-05-05 18:34 | -27.24144 | -64.70994 | 35833 ft | 384 kts | 310° |
| 2026-05-05 18:34 | -27.20165 | -64.75015 | 35837 ft | 385 kts | 310° |
| 2026-05-05 18:35 | -27.16184 | -64.79034 | 35841 ft | 385 kts | 310° |
| 2026-05-05 18:35 | -27.12203 | -64.83053 | 35828 ft | 385 kts | 310° |
| 2026-05-05 18:36 | -27.08222 | -64.87081 | 35834 ft | 386 kts | 310° |
| 2026-05-05 18:36 | -27.04251 | -64.91075 | 35845 ft | 386 kts | 310° |
| 2026-05-05 18:37 | -27.00255 | -64.95097 | 35849 ft | 386 kts | 310° |
| 2026-05-05 18:37 | -26.96258 | -64.99110 | 35873 ft | 386 kts | 310° |
| 2026-05-05 18:38 | -26.92263 | -65.03125 | 35878 ft | 385 kts | 310° |
| 2026-05-05 18:38 | -26.88278 | -65.07128 | 35867 ft | 385 kts | 310° |
| 2026-05-05 18:39 | -26.84284 | -65.11127 | 35865 ft | 385 kts | 311° |
| 2026-05-05 18:39 | -26.80163 | -65.14996 | 35865 ft | 388 kts | 313° |
| 2026-05-05 18:40 | -26.75959 | -65.18772 | 35867 ft | 388 kts | 313° |
| 2026-05-05 18:40 | -26.71764 | -65.22555 | 35856 ft | 387 kts | 313° |
| 2026-05-05 18:41 | -26.67593 | -65.26354 | 35848 ft | 387 kts | 313° |
| 2026-05-05 18:41 | -26.63424 | -65.30169 | 35866 ft | 387 kts | 313° |
| 2026-05-05 18:42 | -26.59273 | -65.33954 | 35875 ft | 388 kts | 313° |
| 2026-05-05 18:42 | -26.55092 | -65.37761 | 35900 ft | 388 kts | 313° |
| 2026-05-05 18:43 | -26.50916 | -65.41557 | 35907 ft | 388 kts | 313° |
| 2026-05-05 18:43 | -26.47407 | -65.44745 | 35907 ft | 388 kts | 313° |
| 2026-05-05 18:44 | -26.42549 | -65.49157 | 35916 ft | 388 kts | 313° |
| 2026-05-05 18:44 | -26.38348 | -65.52959 | 35914 ft | 388 kts | 313° |
| 2026-05-05 18:45 | -26.34156 | -65.56755 | 35918 ft | 389 kts | 313° |
| 2026-05-05 18:45 | -26.29953 | -65.60564 | 35924 ft | 389 kts | 313° |
| 2026-05-05 18:46 | -26.25752 | -65.64368 | 35932 ft | 389 kts | 314° |
| 2026-05-05 18:46 | -26.21561 | -65.68145 | 35930 ft | 388 kts | 314° |
| 2026-05-05 18:47 | -26.17375 | -65.71922 | 35941 ft | 387 kts | 314° |
| 2026-05-05 18:47 | -26.13180 | -65.75707 | 35941 ft | 388 kts | 314° |
| 2026-05-05 18:48 | -26.08996 | -65.79484 | 35937 ft | 388 kts | 314° |
| 2026-05-05 18:48 | -26.04828 | -65.83232 | 35940 ft | 388 kts | 314° |
| 2026-05-05 18:49 | -26.00634 | -65.86996 | 35947 ft | 388 kts | 314° |
| 2026-05-05 18:49 | -25.96437 | -65.90765 | 35943 ft | 388 kts | 314° |
| 2026-05-05 18:50 | -25.92244 | -65.94530 | 35953 ft | 387 kts | 314° |
| 2026-05-05 18:50 | -25.88055 | -65.98283 | 35956 ft | 386 kts | 314° |
| 2026-05-05 18:51 | -25.83878 | -66.02024 | 35958 ft | 385 kts | 314° |
| 2026-05-05 18:51 | -25.79701 | -66.05752 | 35958 ft | 385 kts | 314° |
| 2026-05-05 18:52 | -25.75540 | -66.09474 | 35937 ft | 384 kts | 314° |
| 2026-05-05 18:52 | -25.71371 | -66.13194 | 35920 ft | 384 kts | 314° |
| 2026-05-05 18:53 | -25.67206 | -66.16917 | 35916 ft | 385 kts | 314° |
| 2026-05-05 18:53 | -25.63031 | -66.20646 | 35908 ft | 386 kts | 314° |
| 2026-05-05 18:54 | -25.58838 | -66.24372 | 35908 ft | 387 kts | 314° |
| 2026-05-05 18:54 | -25.54639 | -66.28103 | 35930 ft | 387 kts | 314° |
| 2026-05-05 18:55 | -25.50444 | -66.31835 | 35944 ft | 387 kts | 314° |
| 2026-05-05 18:55 | -25.46254 | -66.35551 | 35929 ft | 386 kts | 315° |
| 2026-05-05 18:56 | -25.42065 | -66.39270 | 35973 ft | 386 kts | 315° |
| 2026-05-05 18:56 | -25.37877 | -66.42988 | 35979 ft | 386 kts | 315° |
| 2026-05-05 18:57 | -25.33708 | -66.46682 | 36001 ft | 386 kts | 314° |
| 2026-05-05 18:57 | -25.29527 | -66.50378 | 35985 ft | 385 kts | 314° |
| 2026-05-05 18:58 | -25.25347 | -66.54070 | 36063 ft | 384 kts | 314° |
| 2026-05-05 18:58 | -25.21168 | -66.57768 | 36065 ft | 387 kts | 315° |
| 2026-05-05 18:59 | -25.16950 | -66.61487 | 36104 ft | 388 kts | 315° |
| 2026-05-05 18:59 | -25.12731 | -66.65206 | 36135 ft | 388 kts | 315° |
| 2026-05-05 19:00 | -25.09229 | -66.68287 | 36140 ft | 387 kts | 315° |
| 2026-05-05 19:00 | -25.05020 | -66.71987 | 36153 ft | 387 kts | 315° |
| 2026-05-05 19:01 | -25.00813 | -66.75687 | 36153 ft | 387 kts | 315° |
| 2026-05-05 19:01 | -24.96611 | -66.79383 | 36125 ft | 386 kts | 315° |
| 2026-05-05 19:02 | -24.92413 | -66.83077 | 36120 ft | 387 kts | 315° |
| 2026-05-05 19:02 | -24.88192 | -66.86782 | 36123 ft | 389 kts | 316° |
| 2026-05-05 19:03 | -24.83950 | -66.90493 | 36099 ft | 390 kts | 315° |
| 2026-05-05 19:03 | -24.79706 | -66.94208 | 36105 ft | 390 kts | 316° |
| 2026-05-05 19:04 | -24.75460 | -66.97919 | 36108 ft | 390 kts | 316° |
| 2026-05-05 19:04 | -24.71216 | -67.01632 | 36105 ft | 390 kts | 316° |
| 2026-05-05 19:05 | -24.66992 | -67.05322 | 36092 ft | 390 kts | 316° |
| 2026-05-05 19:05 | -24.62736 | -67.09036 | 36096 ft | 391 kts | 316° |
| 2026-05-05 19:06 | -24.58468 | -67.12748 | 36100 ft | 391 kts | 316° |
| 2026-05-05 19:06 | -24.54208 | -67.16466 | 36075 ft | 391 kts | 316° |
| 2026-05-05 19:07 | -24.49939 | -67.20179 | 36076 ft | 391 kts | 316° |
| 2026-05-05 19:07 | -24.45670 | -67.23885 | 36049 ft | 391 kts | 316° |
| 2026-05-05 19:08 | -24.41398 | -67.27597 | 36057 ft | 392 kts | 316° |
| 2026-05-05 19:08 | -24.37122 | -67.31311 | 36047 ft | 392 kts | 316° |
| 2026-05-05 19:09 | -24.32845 | -67.35020 | 36057 ft | 393 kts | 316° |
| 2026-05-05 19:09 | -24.28551 | -67.38729 | 36058 ft | 393 kts | 316° |
| 2026-05-05 19:10 | -24.24261 | -67.42436 | 36083 ft | 393 kts | 316° |
| 2026-05-05 19:10 | -24.19963 | -67.46156 | 36089 ft | 394 kts | 316° |
| 2026-05-05 19:11 | -24.15668 | -67.49873 | 36092 ft | 393 kts | 316° |
| 2026-05-05 19:11 | -24.11406 | -67.53553 | 36120 ft | 393 kts | 316° |
| 2026-05-05 19:12 | -24.07086 | -67.57224 | 36135 ft | 393 kts | 317° |
| 2026-05-05 19:12 | -24.02758 | -67.60851 | 36168 ft | 391 kts | 317° |
| 2026-05-05 19:13 | -23.98455 | -67.64467 | 36170 ft | 389 kts | 317° |
| 2026-05-05 19:13 | -23.94161 | -67.68083 | 36113 ft | 389 kts | 317° |
| 2026-05-05 19:14 | -23.89868 | -67.71699 | 36103 ft | 390 kts | 317° |
| 2026-05-05 19:14 | -23.85553 | -67.75324 | 36110 ft | 392 kts | 317° |
| 2026-05-05 19:15 | -23.81222 | -67.78960 | 36106 ft | 393 kts | 317° |
| 2026-05-05 19:15 | -23.76889 | -67.82602 | 36057 ft | 393 kts | 317° |
| 2026-05-05 19:16 | -23.72563 | -67.86238 | 36040 ft | 393 kts | 317° |
| 2026-05-05 19:16 | -23.68225 | -67.89873 | 36041 ft | 393 kts | 317° |
| 2026-05-05 19:17 | -23.63879 | -67.93503 | 36053 ft | 393 kts | 317° |
| 2026-05-05 19:17 | -23.59567 | -67.97105 | 35983 ft | 393 kts | 317° |
| 2026-05-05 19:18 | -23.55220 | -68.00729 | 35969 ft | 393 kts | 317° |
| 2026-05-05 19:18 | -23.50872 | -68.04354 | 35976 ft | 393 kts | 317° |
| 2026-05-05 19:19 | -23.46530 | -68.07973 | 35975 ft | 393 kts | 317° |
| 2026-05-05 19:19 | -23.42188 | -68.11592 | 35975 ft | 393 kts | 317° |
| 2026-05-05 19:20 | -23.37851 | -68.15209 | 35953 ft | 393 kts | 317° |
| 2026-05-05 19:20 | -23.33510 | -68.18825 | 35958 ft | 393 kts | 317° |
| 2026-05-05 19:21 | -23.29166 | -68.22442 | 35909 ft | 393 kts | 318° |
| 2026-05-05 19:21 | -23.24818 | -68.26046 | 35916 ft | 393 kts | 318° |
| 2026-05-05 19:22 | -23.20475 | -68.29651 | 35925 ft | 393 kts | 318° |
| 2026-05-05 19:22 | -23.16131 | -68.33254 | 35920 ft | 393 kts | 318° |
| 2026-05-05 19:23 | -23.11791 | -68.36853 | 35897 ft | 392 kts | 318° |
| 2026-05-05 19:23 | -23.07447 | -68.40446 | 35921 ft | 393 kts | 318° |
| 2026-05-05 19:24 | -23.03103 | -68.44034 | 35914 ft | 392 kts | 318° |
| 2026-05-05 19:24 | -22.98758 | -68.47624 | 35933 ft | 393 kts | 318° |
| 2026-05-05 19:25 | -22.94411 | -68.51215 | 35949 ft | 393 kts | 318° |
| 2026-05-05 19:25 | -22.90058 | -68.54806 | 35954 ft | 393 kts | 318° |
| 2026-05-05 19:26 | -22.85703 | -68.58393 | 35956 ft | 393 kts | 319° |
| 2026-05-05 19:26 | -22.81382 | -68.61965 | 35969 ft | 393 kts | 319° |
| 2026-05-05 19:27 | -22.77023 | -68.65549 | 35976 ft | 394 kts | 319° |
| 2026-05-05 19:27 | -22.72658 | -68.69131 | 35978 ft | 394 kts | 319° |
| 2026-05-05 19:28 | -22.68295 | -68.72710 | 35976 ft | 393 kts | 319° |
| 2026-05-05 19:28 | -22.63934 | -68.76290 | 35985 ft | 393 kts | 319° |
| 2026-05-05 19:29 | -22.59568 | -68.79872 | 35973 ft | 394 kts | 319° |
| 2026-05-05 19:29 | -22.55188 | -68.83462 | 35963 ft | 396 kts | 320° |
| 2026-05-05 19:30 | -22.50783 | -68.87069 | 35979 ft | 398 kts | 319° |
| 2026-05-05 19:30 | -22.46447 | -68.90786 | 35995 ft | 397 kts | 317° |
| 2026-05-05 19:31 | -22.42233 | -68.94636 | 36007 ft | 397 kts | 316° |
| 2026-05-05 19:31 | -22.38018 | -68.98489 | 36009 ft | 396 kts | 316° |
| 2026-05-05 19:32 | -22.33785 | -69.02299 | 36007 ft | 397 kts | 317° |
| 2026-05-05 19:32 | -22.29525 | -69.06106 | 35999 ft | 398 kts | 317° |
| 2026-05-05 19:33 | -22.25257 | -69.09915 | 36001 ft | 398 kts | 317° |
| 2026-05-05 19:33 | -22.20991 | -69.13724 | 35991 ft | 398 kts | 317° |
| 2026-05-05 19:34 | -22.16755 | -69.17512 | 35991 ft | 398 kts | 317° |
| 2026-05-05 19:35 | -22.10360 | -69.23226 | 36012 ft | 398 kts | 317° |
| 2026-05-05 19:35 | -22.06104 | -69.27021 | 35978 ft | 397 kts | 317° |
| 2026-05-05 19:36 | -22.01845 | -69.30820 | 35968 ft | 397 kts | 317° |
| 2026-05-05 19:36 | -21.97578 | -69.34616 | 35968 ft | 398 kts | 317° |
| 2026-05-05 19:37 | -21.93303 | -69.38418 | 35970 ft | 398 kts | 317° |
| 2026-05-05 19:37 | -21.89033 | -69.42216 | 35943 ft | 399 kts | 317° |
| 2026-05-05 19:38 | -21.84757 | -69.46019 | 35944 ft | 398 kts | 317° |
| 2026-05-05 19:38 | -21.80480 | -69.49812 | 35947 ft | 398 kts | 317° |
| 2026-05-05 19:39 | -21.76205 | -69.53605 | 35927 ft | 398 kts | 317° |
| 2026-05-05 19:39 | -21.71931 | -69.57396 | 35928 ft | 398 kts | 317° |
| 2026-05-05 19:40 | -21.67678 | -69.61166 | 35928 ft | 399 kts | 317° |
| 2026-05-05 19:40 | -21.63391 | -69.64951 | 35931 ft | 399 kts | 317° |
| 2026-05-05 19:41 | -21.59102 | -69.68736 | 35943 ft | 399 kts | 317° |
| 2026-05-05 19:41 | -21.54818 | -69.72516 | 35944 ft | 399 kts | 317° |
| 2026-05-05 19:42 | -21.50532 | -69.76301 | 35926 ft | 399 kts | 318° |
| 2026-05-05 19:42 | -21.46242 | -69.80090 | 35940 ft | 400 kts | 318° |
| 2026-05-05 19:43 | -21.41935 | -69.83892 | 35933 ft | 401 kts | 318° |
| 2026-05-05 19:43 | -21.37615 | -69.87693 | 35935 ft | 402 kts | 318° |
| 2026-05-05 19:44 | -21.33297 | -69.91489 | 35951 ft | 401 kts | 318° |
| 2026-05-05 19:44 | -21.28981 | -69.95283 | 35966 ft | 401 kts | 318° |
| 2026-05-05 19:45 | -21.24667 | -69.99072 | 35963 ft | 401 kts | 318° |
| 2026-05-05 19:45 | -21.20355 | -70.02855 | 35948 ft | 401 kts | 318° |
| 2026-05-05 19:46 | -21.16034 | -70.06652 | 35956 ft | 402 kts | 318° |
| 2026-05-05 19:46 | -21.11738 | -70.10424 | 35958 ft | 402 kts | 318° |
| 2026-05-05 19:47 | -21.07405 | -70.14218 | 35955 ft | 402 kts | 318° |
| 2026-05-05 19:47 | -21.03069 | -70.18001 | 35954 ft | 403 kts | 318° |
| 2026-05-05 19:48 | -20.98726 | -70.21789 | 35966 ft | 403 kts | 318° |
| 2026-05-05 19:48 | -20.94387 | -70.25585 | 35980 ft | 402 kts | 318° |
| 2026-05-05 19:49 | -20.90054 | -70.29375 | 35977 ft | 402 kts | 319° |
| 2026-05-05 19:49 | -20.85724 | -70.33150 | 35968 ft | 402 kts | 319° |
| 2026-05-05 19:50 | -20.81395 | -70.36922 | 35973 ft | 401 kts | 319° |
| 2026-05-05 19:50 | -20.77068 | -70.40689 | 35973 ft | 401 kts | 319° |
| 2026-05-05 19:51 | -20.72737 | -70.44455 | 35971 ft | 401 kts | 319° |
| 2026-05-05 19:51 | -20.68408 | -70.48214 | 35970 ft | 401 kts | 319° |
| 2026-05-05 19:52 | -20.64075 | -70.51980 | 35973 ft | 402 kts | 319° |
| 2026-05-05 19:52 | -20.60472 | -70.55111 | 35975 ft | 402 kts | 319° |
| 2026-05-05 19:53 | -20.56143 | -70.58875 | 35973 ft | 401 kts | 319° |
| 2026-05-05 19:53 | -20.51108 | -70.63248 | 35971 ft | 401 kts | 319° |
| 2026-05-05 19:54 | -20.47481 | -70.66387 | 35970 ft | 401 kts | 319° |
| 2026-05-05 19:54 | -20.43157 | -70.70130 | 35966 ft | 400 kts | 319° |
| 2026-05-05 19:55 | -20.38840 | -70.73874 | 35959 ft | 400 kts | 319° |
| 2026-05-05 19:55 | -20.34522 | -70.77613 | 35947 ft | 400 kts | 319° |
| 2026-05-05 19:56 | -20.30188 | -70.81354 | 35948 ft | 401 kts | 319° |
| 2026-05-05 19:56 | -20.25878 | -70.85071 | 35950 ft | 402 kts | 319° |
| 2026-05-05 19:57 | -20.21533 | -70.88815 | 35956 ft | 402 kts | 319° |
| 2026-05-05 19:57 | -20.17184 | -70.92568 | 35973 ft | 402 kts | 319° |
| 2026-05-05 19:58 | -20.12848 | -70.96303 | 35978 ft | 401 kts | 319° |
| 2026-05-05 19:58 | -20.08520 | -71.00028 | 35974 ft | 400 kts | 319° |
| 2026-05-05 19:59 | -20.04185 | -71.03753 | 35947 ft | 401 kts | 319° |
| 2026-05-05 19:59 | -19.99844 | -71.07483 | 35945 ft | 401 kts | 319° |
| 2026-05-05 20:00 | -19.95499 | -71.11217 | 35951 ft | 402 kts | 320° |
| 2026-05-05 20:00 | -19.91150 | -71.14952 | 35963 ft | 402 kts | 319° |
| 2026-05-05 20:01 | -19.86801 | -71.18687 | 35964 ft | 402 kts | 320° |
| 2026-05-05 20:01 | -19.82438 | -71.22418 | 35961 ft | 402 kts | 320° |
| 2026-05-05 20:02 | -19.78075 | -71.26147 | 35939 ft | 403 kts | 319° |
| 2026-05-05 20:02 | -19.73733 | -71.29868 | 35937 ft | 404 kts | 319° |
| 2026-05-05 20:03 | -19.69351 | -71.33626 | 35939 ft | 406 kts | 319° |
| 2026-05-05 20:03 | -19.64950 | -71.37382 | 35954 ft | 406 kts | 320° |
| 2026-05-05 20:04 | -19.60542 | -71.41141 | 35952 ft | 406 kts | 320° |
| 2026-05-05 20:04 | -19.56138 | -71.44897 | 35957 ft | 407 kts | 320° |
| 2026-05-05 20:05 | -19.51730 | -71.48659 | 35956 ft | 407 kts | 320° |
| 2026-05-05 20:05 | -19.47316 | -71.52417 | 35951 ft | 407 kts | 320° |
| 2026-05-05 20:06 | -19.42908 | -71.56167 | 35961 ft | 406 kts | 320° |
| 2026-05-05 20:06 | -19.38508 | -71.59915 | 35963 ft | 406 kts | 320° |
| 2026-05-05 20:07 | -19.34113 | -71.63659 | 35969 ft | 405 kts | 320° |
| 2026-05-05 20:07 | -19.29712 | -71.67388 | 35971 ft | 405 kts | 320° |
| 2026-05-05 20:08 | -19.25312 | -71.71116 | 35969 ft | 405 kts | 320° |
| 2026-05-05 20:08 | -19.20918 | -71.74847 | 35968 ft | 405 kts | 320° |
| 2026-05-05 20:09 | -19.16559 | -71.78553 | 35959 ft | 405 kts | 320° |
| 2026-05-05 20:09 | -19.12138 | -71.82300 | 35957 ft | 405 kts | 320° |
| 2026-05-05 20:10 | -19.07770 | -71.85995 | 35961 ft | 405 kts | 320° |
| 2026-05-05 20:10 | -19.03370 | -71.89711 | 35960 ft | 405 kts | 320° |
| 2026-05-05 20:11 | -18.98978 | -71.93424 | 35966 ft | 404 kts | 320° |
| 2026-05-05 20:11 | -18.94583 | -71.97140 | 35968 ft | 404 kts | 320° |
| 2026-05-05 20:12 | -18.90197 | -72.00844 | 35967 ft | 404 kts | 320° |
| 2026-05-05 20:12 | -18.85812 | -72.04538 | 35955 ft | 404 kts | 320° |
| 2026-05-05 20:13 | -18.81419 | -72.08239 | 35957 ft | 404 kts | 320° |
| 2026-05-05 20:13 | -18.77027 | -72.11936 | 35956 ft | 404 kts | 320° |
| 2026-05-05 20:14 | -18.72639 | -72.15636 | 35955 ft | 404 kts | 320° |
| 2026-05-05 20:14 | -18.68241 | -72.19340 | 35956 ft | 404 kts | 320° |
| 2026-05-05 20:15 | -18.63869 | -72.23009 | 35962 ft | 404 kts | 320° |
| 2026-05-05 20:15 | -18.59472 | -72.26706 | 35957 ft | 404 kts | 320° |
| 2026-05-05 20:16 | -18.55075 | -72.30394 | 35958 ft | 404 kts | 320° |
| 2026-05-05 20:16 | -18.50675 | -72.34085 | 35958 ft | 404 kts | 320° |
| 2026-05-05 20:17 | -18.46277 | -72.37774 | 35960 ft | 404 kts | 320° |
| 2026-05-05 20:17 | -18.41877 | -72.41463 | 35961 ft | 404 kts | 320° |
| 2026-05-05 20:18 | -18.37470 | -72.45147 | 35962 ft | 404 kts | 320° |
| 2026-05-05 20:18 | -18.33065 | -72.48829 | 35966 ft | 405 kts | 320° |
| 2026-05-05 20:19 | -18.28657 | -72.52512 | 35954 ft | 405 kts | 320° |
| 2026-05-05 20:19 | -18.24246 | -72.56206 | 35955 ft | 405 kts | 320° |
| 2026-05-05 20:20 | -18.19842 | -72.59903 | 35956 ft | 406 kts | 320° |
| 2026-05-05 20:20 | -18.15424 | -72.63596 | 35967 ft | 405 kts | 321° |
| 2026-05-05 20:21 | -18.11035 | -72.67253 | 35967 ft | 405 kts | 321° |
| 2026-05-05 20:21 | -18.06626 | -72.70934 | 35968 ft | 405 kts | 320° |
| 2026-05-05 20:22 | -18.02222 | -72.74612 | 35969 ft | 404 kts | 321° |
| 2026-05-05 20:22 | -17.97809 | -72.78279 | 35966 ft | 404 kts | 321° |
| 2026-05-05 20:23 | -17.93397 | -72.81946 | 35965 ft | 404 kts | 321° |
| 2026-05-05 20:23 | -17.88992 | -72.85617 | 35961 ft | 404 kts | 321° |
| 2026-05-05 20:24 | -17.84588 | -72.89285 | 35960 ft | 404 kts | 321° |
| 2026-05-05 20:24 | -17.80185 | -72.92944 | 35960 ft | 404 kts | 321° |
| 2026-05-05 20:25 | -17.75773 | -72.96594 | 35968 ft | 404 kts | 321° |
| 2026-05-05 20:25 | -17.71369 | -73.00252 | 35971 ft | 403 kts | 321° |
| 2026-05-05 20:26 | -17.66968 | -73.03898 | 35957 ft | 403 kts | 321° |
| 2026-05-05 20:26 | -17.62561 | -73.07558 | 35956 ft | 404 kts | 321° |
| 2026-05-05 20:27 | -17.58189 | -73.11192 | 35956 ft | 404 kts | 321° |
| 2026-05-05 20:27 | -17.53772 | -73.14840 | 35958 ft | 404 kts | 321° |
| 2026-05-05 20:28 | -17.49349 | -73.18485 | 35964 ft | 405 kts | 321° |
| 2026-05-05 20:28 | -17.44932 | -73.22137 | 35965 ft | 404 kts | 321° |
| 2026-05-05 20:29 | -17.40515 | -73.25786 | 35962 ft | 404 kts | 321° |
| 2026-05-05 20:29 | -17.36102 | -73.29439 | 35955 ft | 404 kts | 321° |
| 2026-05-05 20:30 | -17.31685 | -73.33091 | 35960 ft | 405 kts | 321° |
| 2026-05-05 20:30 | -17.27258 | -73.36734 | 35962 ft | 405 kts | 321° |
| 2026-05-05 20:31 | -17.22829 | -73.40377 | 35966 ft | 405 kts | 321° |
| 2026-05-05 20:31 | -17.18396 | -73.44022 | 35968 ft | 405 kts | 321° |
| 2026-05-05 20:32 | -17.13970 | -73.47668 | 35968 ft | 405 kts | 321° |
| 2026-05-05 20:32 | -17.09545 | -73.51315 | 35968 ft | 405 kts | 321° |
| 2026-05-05 20:33 | -17.05111 | -73.54957 | 35959 ft | 405 kts | 321° |
| 2026-05-05 20:33 | -17.00708 | -73.58571 | 35956 ft | 406 kts | 321° |
| 2026-05-05 20:34 | -16.96266 | -73.62218 | 35960 ft | 406 kts | 321° |
| 2026-05-05 20:34 | -16.91818 | -73.65868 | 35969 ft | 407 kts | 321° |
| 2026-05-05 20:35 | -16.87367 | -73.69519 | 35969 ft | 407 kts | 321° |
| 2026-05-05 20:35 | -16.82913 | -73.73165 | 35971 ft | 407 kts | 321° |
| 2026-05-05 20:36 | -16.78460 | -73.76811 | 35976 ft | 407 kts | 321° |
| 2026-05-05 20:36 | -16.74010 | -73.80462 | 35970 ft | 407 kts | 321° |
| 2026-05-05 20:37 | -16.69554 | -73.84107 | 35959 ft | 407 kts | 321° |
| 2026-05-05 20:37 | -16.65098 | -73.87754 | 35963 ft | 407 kts | 321° |
| 2026-05-05 20:38 | -16.60635 | -73.91399 | 35963 ft | 408 kts | 321° |
| 2026-05-05 20:38 | -16.56166 | -73.95036 | 35960 ft | 407 kts | 321° |
| 2026-05-05 20:39 | -16.51699 | -73.98678 | 35964 ft | 408 kts | 321° |
| 2026-05-05 20:39 | -16.47239 | -74.02326 | 35971 ft | 407 kts | 321° |
| 2026-05-05 20:40 | -16.42780 | -74.05964 | 35966 ft | 407 kts | 322° |
| 2026-05-05 20:40 | -16.38312 | -74.09600 | 35961 ft | 408 kts | 321° |
| 2026-05-05 20:41 | -16.33839 | -74.13246 | 35967 ft | 408 kts | 321° |
| 2026-05-05 20:41 | -16.29390 | -74.16860 | 35968 ft | 409 kts | 322° |
| 2026-05-05 20:42 | -16.24904 | -74.20496 | 35969 ft | 409 kts | 322° |
| 2026-05-05 20:42 | -16.20418 | -74.24133 | 35970 ft | 409 kts | 322° |
| 2026-05-05 20:43 | -16.15937 | -74.27768 | 35970 ft | 409 kts | 321° |
| 2026-05-05 20:43 | -16.11456 | -74.31408 | 35972 ft | 409 kts | 322° |
| 2026-05-05 20:44 | -16.06969 | -74.35048 | 35960 ft | 410 kts | 322° |
| 2026-05-05 20:44 | -16.02472 | -74.38689 | 35968 ft | 410 kts | 322° |
| 2026-05-05 20:45 | -15.95726 | -74.44170 | 35968 ft | 410 kts | 322° |
| 2026-05-05 20:45 | -15.91977 | -74.47197 | 35970 ft | 410 kts | 322° |
| 2026-05-05 20:46 | -15.87475 | -74.50830 | 35974 ft | 410 kts | 322° |
| 2026-05-05 20:46 | -15.82970 | -74.54473 | 35975 ft | 410 kts | 322° |
| 2026-05-05 20:47 | -15.78463 | -74.58109 | 35962 ft | 410 kts | 322° |
| 2026-05-05 20:47 | -15.73949 | -74.61749 | 35957 ft | 411 kts | 322° |
| 2026-05-05 20:48 | -15.69425 | -74.65395 | 35955 ft | 412 kts | 322° |
| 2026-05-05 20:48 | -15.64895 | -74.69044 | 35957 ft | 413 kts | 322° |
| 2026-05-05 20:49 | -15.60358 | -74.72701 | 35963 ft | 413 kts | 322° |
| 2026-05-05 20:49 | -15.55823 | -74.76356 | 35965 ft | 413 kts | 322° |
| 2026-05-05 20:50 | -15.51287 | -74.80014 | 35967 ft | 413 kts | 322° |
| 2026-05-05 20:50 | -15.46775 | -74.83648 | 35968 ft | 413 kts | 322° |
| 2026-05-05 20:51 | -15.42222 | -74.87300 | 35949 ft | 415 kts | 322° |
| 2026-05-05 20:51 | -15.37651 | -74.90973 | 35949 ft | 416 kts | 322° |
| 2026-05-05 20:52 | -15.33070 | -74.94653 | 35955 ft | 417 kts | 322° |
| 2026-05-05 20:52 | -15.28483 | -74.98335 | 35958 ft | 417 kts | 322° |
| 2026-05-05 20:53 | -15.23896 | -75.02022 | 35961 ft | 418 kts | 322° |
| 2026-05-05 20:53 | -15.19299 | -75.05710 | 35968 ft | 418 kts | 322° |
| 2026-05-05 20:54 | -15.14697 | -75.09389 | 35970 ft | 417 kts | 322° |
| 2026-05-05 20:54 | -15.10108 | -75.13059 | 35961 ft | 417 kts | 322° |
| 2026-05-05 20:55 | -15.05513 | -75.16738 | 35958 ft | 417 kts | 322° |
| 2026-05-05 20:55 | -15.00925 | -75.20415 | 35951 ft | 417 kts | 322° |
| 2026-05-05 20:56 | -14.96330 | -75.24094 | 35947 ft | 418 kts | 322° |
| 2026-05-05 20:56 | -14.91763 | -75.27749 | 35946 ft | 418 kts | 322° |
| 2026-05-05 20:57 | -14.87159 | -75.31418 | 35942 ft | 418 kts | 322° |
| 2026-05-05 20:57 | -14.82556 | -75.35082 | 35943 ft | 418 kts | 322° |
| 2026-05-05 20:58 | -14.78704 | -75.38151 | 35944 ft | 417 kts | 322° |
| 2026-05-05 20:58 | -14.77954 | -75.38750 | 35945 ft | 417 kts | 322° |
| 2026-05-05 20:59 | -14.68764 | -75.46081 | 35944 ft | 417 kts | 322° |
| 2026-05-05 20:59 | -14.64178 | -75.49732 | 35948 ft | 416 kts | 322° |
| 2026-05-05 21:00 | -14.59591 | -75.53382 | 35954 ft | 416 kts | 322° |
| 2026-05-05 21:00 | -14.55013 | -75.57024 | 35954 ft | 415 kts | 322° |
| 2026-05-05 21:01 | -14.50436 | -75.60663 | 35953 ft | 415 kts | 322° |
| 2026-05-05 21:01 | -14.45886 | -75.64279 | 35945 ft | 415 kts | 322° |
| 2026-05-05 21:02 | -14.41308 | -75.67918 | 35941 ft | 416 kts | 322° |
| 2026-05-05 21:02 | -14.36719 | -75.71559 | 35938 ft | 416 kts | 322° |
| 2026-05-05 21:03 | -14.32130 | -75.75198 | 35936 ft | 416 kts | 322° |
| 2026-05-05 21:03 | -14.27541 | -75.78842 | 35935 ft | 416 kts | 322° |
| 2026-05-05 21:04 | -14.22950 | -75.82477 | 35942 ft | 416 kts | 322° |
| 2026-05-05 21:04 | -14.18360 | -75.86110 | 35938 ft | 416 kts | 322° |
| 2026-05-05 21:05 | -14.13779 | -75.89739 | 35936 ft | 416 kts | 322° |
| 2026-05-05 21:05 | -14.09179 | -75.93376 | 35932 ft | 417 kts | 322° |
| 2026-05-05 21:06 | -14.04579 | -75.97018 | 35928 ft | 417 kts | 322° |
| 2026-05-05 21:06 | -14.00006 | -76.00642 | 35926 ft | 417 kts | 322° |
| 2026-05-05 21:07 | -13.95396 | -76.04278 | 35921 ft | 418 kts | 322° |
| 2026-05-05 21:07 | -13.90779 | -76.07918 | 35919 ft | 418 kts | 322° |
| 2026-05-05 21:08 | -13.86171 | -76.11558 | 35908 ft | 419 kts | 322° |
| 2026-05-05 21:08 | -13.81545 | -76.15227 | 35898 ft | 420 kts | 322° |
| 2026-05-05 21:09 | -13.76901 | -76.18887 | 35910 ft | 420 kts | 322° |
| 2026-05-05 21:09 | -13.72137 | -76.22372 | 35918 ft | 420 kts | 328° |
| 2026-05-05 21:10 | -13.67176 | -76.25529 | 35920 ft | 419 kts | 327° |
| 2026-05-05 21:10 | -13.62225 | -76.28701 | 35924 ft | 419 kts | 327° |
| 2026-05-05 21:11 | -13.57282 | -76.31866 | 35928 ft | 419 kts | 327° |
| 2026-05-05 21:11 | -13.52330 | -76.35032 | 35932 ft | 419 kts | 327° |
| 2026-05-05 21:12 | -13.49857 | -76.36610 | 35780 ft | 420 kts | 327° |
| 2026-05-05 21:12 | -13.47386 | -76.38187 | 35407 ft | 416 kts | 328° |
| 2026-05-05 21:12 | -13.44928 | -76.39754 | 34912 ft | 413 kts | 328° |
| 2026-05-05 21:12 | -13.42493 | -76.41306 | 34420 ft | 411 kts | 328° |
| 2026-05-05 21:13 | -13.40071 | -76.42852 | 33926 ft | 409 kts | 328° |
| 2026-05-05 21:13 | -13.37660 | -76.44391 | 33389 ft | 406 kts | 328° |
| 2026-05-05 21:13 | -13.35274 | -76.45912 | 32906 ft | 403 kts | 329° |
| 2026-05-05 21:13 | -13.32903 | -76.47423 | 32426 ft | 400 kts | 329° |
| 2026-05-05 21:14 | -13.30580 | -76.48904 | 31953 ft | 397 kts | 329° |
| 2026-05-05 21:14 | -13.28243 | -76.50393 | 31489 ft | 394 kts | 329° |
| 2026-05-05 21:14 | -13.23611 | -76.53346 | 30569 ft | 389 kts | 330° |
| 2026-05-05 21:15 | -13.21321 | -76.54804 | 30115 ft | 386 kts | 330° |
| 2026-05-05 21:15 | -13.19048 | -76.56253 | 29630 ft | 383 kts | 330° |
| 2026-05-05 21:15 | -13.16789 | -76.57692 | 29193 ft | 379 kts | 330° |
| 2026-05-05 21:15 | -13.14567 | -76.59106 | 28782 ft | 374 kts | 330° |
| 2026-05-05 21:16 | -13.12366 | -76.60506 | 28371 ft | 370 kts | 330° |
| 2026-05-05 21:16 | -13.10192 | -76.61889 | 27963 ft | 366 kts | 330° |
| 2026-05-05 21:16 | -13.08044 | -76.63257 | 27557 ft | 362 kts | 330° |
| 2026-05-05 21:16 | -13.05909 | -76.64615 | 27149 ft | 359 kts | 330° |
| 2026-05-05 21:17 | -13.03794 | -76.65959 | 26746 ft | 356 kts | 330° |
| 2026-05-05 21:17 | -13.01691 | -76.67290 | 26346 ft | 354 kts | 330° |
| 2026-05-05 21:17 | -12.99605 | -76.68609 | 25924 ft | 352 kts | 330° |
| 2026-05-05 21:17 | -12.97525 | -76.69927 | 25495 ft | 351 kts | 330° |
| 2026-05-05 21:18 | -12.95455 | -76.71242 | 25079 ft | 349 kts | 330° |
| 2026-05-05 21:18 | -12.93390 | -76.72556 | 24641 ft | 349 kts | 330° |
| 2026-05-05 21:18 | -12.91328 | -76.73868 | 24202 ft | 349 kts | 330° |
| 2026-05-05 21:18 | -12.89263 | -76.75181 | 23758 ft | 349 kts | 330° |
| 2026-05-05 21:19 | -12.87197 | -76.76493 | 23272 ft | 350 kts | 330° |
| 2026-05-05 21:19 | -12.85129 | -76.77804 | 22808 ft | 348 kts | 330° |
| 2026-05-05 21:19 | -12.83077 | -76.79105 | 22368 ft | 347 kts | 330° |
| 2026-05-05 21:19 | -12.81027 | -76.80406 | 21932 ft | 345 kts | 330° |
| 2026-05-05 21:20 | -12.78990 | -76.81699 | 21505 ft | 344 kts | 330° |
| 2026-05-05 21:20 | -12.76960 | -76.82987 | 21080 ft | 343 kts | 330° |
| 2026-05-05 21:20 | -12.74935 | -76.84272 | 20656 ft | 342 kts | 330° |
| 2026-05-05 21:20 | -12.72914 | -76.85552 | 20223 ft | 341 kts | 330° |
| 2026-05-05 21:21 | -12.70892 | -76.86833 | 19815 ft | 341 kts | 330° |
| 2026-05-05 21:21 | -12.68876 | -76.88111 | 19390 ft | 341 kts | 330° |
| 2026-05-05 21:21 | -12.66881 | -76.89375 | 18976 ft | 342 kts | 330° |
| 2026-05-05 21:21 | -12.64859 | -76.90657 | 18551 ft | 342 kts | 330° |
| 2026-05-05 21:22 | -12.62841 | -76.91935 | 18132 ft | 343 kts | 330° |
| 2026-05-05 21:22 | -12.60810 | -76.93222 | 17682 ft | 342 kts | 330° |
| 2026-05-05 21:22 | -12.58792 | -76.94501 | 17258 ft | 341 kts | 330° |
| 2026-05-05 21:22 | -12.56727 | -76.95676 | 16900 ft | 337 kts | 336° |
| 2026-05-05 21:23 | -12.54634 | -76.96708 | 16522 ft | 335 kts | 336° |
| 2026-05-05 21:23 | -12.52544 | -76.97747 | 16223 ft | 331 kts | 336° |
| 2026-05-05 21:23 | -12.50480 | -76.98775 | 15954 ft | 327 kts | 336° |
| 2026-05-05 21:23 | -12.48442 | -76.99789 | 15930 ft | 325 kts | 336° |
| 2026-05-05 21:24 | -12.46404 | -77.00800 | 15936 ft | 326 kts | 336° |
| 2026-05-05 21:24 | -12.44365 | -77.01812 | 15934 ft | 326 kts | 336° |
| 2026-05-05 21:24 | -12.42328 | -77.02823 | 15702 ft | 326 kts | 336° |
| 2026-05-05 21:24 | -12.40287 | -77.03837 | 15010 ft | 326 kts | 335° |
| 2026-05-05 21:25 | -12.38249 | -77.04852 | 14324 ft | 326 kts | 335° |
| 2026-05-05 21:25 | -12.36205 | -77.05870 | 13629 ft | 326 kts | 334° |
| 2026-05-05 21:25 | -12.34168 | -77.06887 | 12886 ft | 326 kts | 334° |
| 2026-05-05 21:25 | -12.32132 | -77.07901 | 12149 ft | 324 kts | 334° |
| 2026-05-05 21:26 | -12.30110 | -77.08906 | 11423 ft | 322 kts | 334° |
| 2026-05-05 21:26 | -12.28103 | -77.09902 | 10737 ft | 319 kts | 334° |
| 2026-05-05 21:26 | -12.26123 | -77.10884 | 10131 ft | 313 kts | 334° |
| 2026-05-05 21:26 | -12.24184 | -77.11847 | 9514 ft | 307 kts | 333° |
| 2026-05-05 21:27 | -12.22300 | -77.12783 | 8868 ft | 302 kts | 334° |
| 2026-05-05 21:27 | -12.20414 | -77.13720 | 8336 ft | 293 kts | 334° |
| 2026-05-05 21:27 | -12.18630 | -77.14607 | 7909 ft | 287 kts | 333° |
| 2026-05-05 21:27 | -12.16830 | -77.15499 | 7624 ft | 282 kts | 334° |
| 2026-05-05 21:28 | -12.15092 | -77.16358 | 7242 ft | 280 kts | 334° |
| 2026-05-05 21:28 | -12.13350 | -77.17219 | 7009 ft | 273 kts | 334° |
| 2026-05-05 21:28 | -12.11676 | -77.18046 | 6887 ft | 262 kts | 334° |
| 2026-05-05 21:28 | -12.10051 | -77.18851 | 6621 ft | 258 kts | 334° |
| 2026-05-05 21:29 | -12.08440 | -77.19650 | 6280 ft | 257 kts | 334° |
| 2026-05-05 21:29 | -12.06836 | -77.20445 | 5913 ft | 256 kts | 334° |
| 2026-05-05 21:29 | -12.05250 | -77.21232 | 5716 ft | 248 kts | 334° |
| 2026-05-05 21:29 | -12.03718 | -77.21991 | 5464 ft | 243 kts | 334° |
| 2026-05-05 21:30 | -12.02199 | -77.22746 | 5146 ft | 242 kts | 334° |
| 2026-05-05 21:30 | -12.00701 | -77.23495 | 4882 ft | 238 kts | 334° |
| 2026-05-05 21:30 | -11.99231 | -77.24256 | 4562 ft | 236 kts | 333° |
| 2026-05-05 21:30 | -11.97770 | -77.25023 | 4196 ft | 237 kts | 333° |
| 2026-05-05 21:31 | -11.96302 | -77.25795 | 3808 ft | 238 kts | 333° |
| 2026-05-05 21:31 | -11.94822 | -77.26571 | 3440 ft | 239 kts | 333° |
| 2026-05-05 21:31 | -11.93342 | -77.27345 | 3081 ft | 239 kts | 332° |
| 2026-05-05 21:31 | -11.91861 | -77.28112 | 2748 ft | 237 kts | 334° |
| 2026-05-05 21:32 | -11.90295 | -77.28508 | 2504 ft | 233 kts | 2° |
| 2026-05-05 21:32 | -11.88762 | -77.28050 | 2288 ft | 229 kts | 27° |
| 2026-05-05 21:32 | -11.87558 | -77.27071 | 2119 ft | 223 kts | 54° |
| 2026-05-05 21:32 | -11.86776 | -77.25719 | 2025 ft | 214 kts | 58° |
| 2026-05-05 21:33 | -11.86014 | -77.24483 | 2010 ft | 204 kts | 58° |
| 2026-05-05 21:33 | -11.85427 | -77.23181 | 2008 ft | 202 kts | 78° |
| 2026-05-05 21:33 | -11.85473 | -77.21771 | 2045 ft | 197 kts | 111° |
| 2026-05-05 21:33 | -11.86185 | -77.20629 | 2040 ft | 190 kts | 140° |
| 2026-05-05 21:34 | -11.87314 | -77.19955 | 2034 ft | 188 kts | 155° |
| 2026-05-05 21:34 | -11.88486 | -77.19381 | 2026 ft | 187 kts | 155° |
| 2026-05-05 21:34 | -11.89663 | -77.18802 | 2024 ft | 187 kts | 156° |
| 2026-05-05 21:34 | -11.90826 | -77.18229 | 2028 ft | 183 kts | 156° |
| 2026-05-05 21:35 | -11.91941 | -77.17680 | 1960 ft | 175 kts | 156° |
| 2026-05-05 21:35 | -11.93004 | -77.17155 | 1801 ft | 166 kts | 156° |
| 2026-05-05 21:35 | -11.93992 | -77.16668 | 1612 ft | 150 kts | 157° |
| 2026-05-05 21:35 | -11.94904 | -77.16218 | 1414 ft | 142 kts | 156° |
| 2026-05-05 21:36 | -11.95780 | -77.15787 | 1221 ft | 138 kts | 157° |
| 2026-05-05 21:36 | -11.96643 | -77.15362 | 1033 ft | 137 kts | 158° |
| 2026-05-05 21:36 | -11.97500 | -77.14940 | 844 ft | 137 kts | 157° |
| 2026-05-05 21:36 | -11.98361 | -77.14521 | 656 ft | 137 kts | 157° |
| 2026-05-05 21:37 | -11.99212 | -77.14092 | 459 ft | 135 kts | 156° |
| 2026-05-05 21:37 | -11.99768 | -77.13814 | 361 ft | 134 kts | 157° |
| 2026-05-05 21:37 | -12.00618 | -77.13407 | 190 ft | 134 kts | 156° |
| 2026-05-05 21:37 | -12.01712 | -77.12862 | 49 ft | 124 kts | 156° |
| 2026-05-05 21:38 | -12.02359 | -77.12542 | 44 ft | 71 kts | 154° |
| 2026-05-05 21:38 | -12.02643 | -77.12389 | 51 ft | 26 kts | 140° |
| 2026-05-05 21:38 | -12.02731 | -77.12289 | 51 ft | 16 kts | 126° |
| 2026-05-05 21:38 | -12.02764 | -77.12243 | 51 ft | 9 kts | 126° |
| 2026-05-05 21:39 | -12.02791 | -77.12204 | 59 ft | 4 kts | 125° |
| 2026-05-05 21:39 | -12.02811 | -77.12177 | 54 ft | 5 kts | 126° |
| 2026-05-05 21:39 | -12.02837 | -77.12142 | 60 ft | 7 kts | 132° |
| 2026-05-05 21:39 | -12.02883 | -77.12105 | 58 ft | 10 kts | 155° |
| 2026-05-05 21:40 | -12.02952 | -77.12068 | 63 ft | 12 kts | 126° |
| 2026-05-05 21:40 | -12.02942 | -77.12029 | 65 ft | 4 kts | 74° |
| 2026-05-05 21:40 | -12.02949 | -77.12001 | 64 ft | 8 kts | 134° |
| 2026-05-05 21:40 | -12.03002 | -77.11973 | 68 ft | 9 kts | 155° |
| 2026-05-05 21:41 | -12.03058 | -77.11946 | 70 ft | 9 kts | 155° |
| 2026-05-05 21:41 | -12.03073 | -77.11929 | 71 ft | 0 kts | 95° |
| 2026-05-05 21:41 | -12.03068 | -77.11914 | 72 ft | 3 kts | 67° |
| 2026-05-05 21:41 | -12.03065 | -77.11906 | 83 ft | 1 kts | 64° |
| 2026-05-05 21:42 | -12.03058 | -77.11891 | 84 ft | 1 kts | 64° |
| 2026-05-05 21:42 | -12.03055 | -77.11884 | 84 ft | 0 kts | 65° |